Terminal Aerodrome Forecast
Issued by NWS Anchorage, AK

Home | Current Version | Previous Version | Text Only | Print | Product List | Glossary On
Versions: 1 2 3 4 5 6 7 8 9 10 11 12 13 14 15 16 17 18 19 20 21
000
FTAK31 PANC 272338
TAFANC
TAF
PANC 272338Z 2800/2906 VRB05KT P6SM VCSH FEW020 BKN060 BKN110
     FM280600 VRB05KT P6SM -SHRA BKN050 OVC080
     FM281200 VRB03KT P6SM -SHRA OVC050
     FM282200 16006KT P6SM VCSH BKN050 BKN100=

USA.gov is the U.S. government's official web portal to all federal, state and local government web resources and services.